createdAt,value
2017-02-28T00:00:32.556Z,986.36
2017-02-28T00:01:14.319Z,986.32
2017-02-28T00:01:55.763Z,986.34
2017-02-28T00:02:37.477Z,986.31
2017-02-28T00:03:19.024Z,986.3
2017-02-28T00:05:39.612Z,986.27
2017-02-28T00:06:21.287Z,986.3
2017-02-28T00:07:02.818Z,986.32
2017-02-28T00:09:23.389Z,986.28
2017-02-28T00:10:05.076Z,986.17
2017-02-28T00:10:46.653Z,986.06
2017-02-28T00:11:28.401Z,986.09
2017-02-28T00:13:43.426Z,986.18
2017-02-28T00:14:25.008Z,986.26
2017-02-28T00:15:06.660Z,986.27
2017-02-28T00:15:48.297Z,986.33
2017-02-28T00:16:29.800Z,986.38
2017-02-28T00:17:11.557Z,986.47
2017-02-28T00:17:53.087Z,986.54
2017-02-28T00:20:08.339Z,986.53
2017-02-28T00:20:49.980Z,986.48
2017-02-28T00:21:31.809Z,986.5
2017-02-28T00:22:13.286Z,986.55
2017-02-28T00:22:54.805Z,986.65
2017-02-28T00:25:15.307Z,986.54
2017-02-28T00:25:56.862Z,986.56
2017-02-28T00:26:38.528Z,986.59
2017-02-28T00:27:20.098Z,986.55
2017-02-28T00:29:40.576Z,986.44
2017-02-28T00:30:22.206Z,986.41
2017-02-28T00:31:03.876Z,986.39
2017-02-28T00:33:19.173Z,986.3
2017-02-28T00:34:00.791Z,986.42
2017-02-28T00:34:42.469Z,986.39
2017-02-28T00:35:24.282Z,986.48
2017-02-28T00:36:05.903Z,986.39
2017-02-28T00:36:47.363Z,986.36
2017-02-28T00:37:29.009Z,986.32
2017-02-28T00:38:10.655Z,986.36
2017-02-28T00:38:52.219Z,986.35
2017-02-28T00:41:07.415Z,986.15
2017-02-28T00:41:48.942Z,986.15
2017-02-28T00:42:30.454Z,986.17
2017-02-28T00:44:30.511Z,985.86
2017-02-28T00:45:12.038Z,985.74
2017-02-28T00:47:32.577Z,985.77
2017-02-28T00:48:14.007Z,985.81
2017-02-28T00:50:08.587Z,985.94
2017-02-28T00:52:03.228Z,985.9
2017-02-28T00:52:44.706Z,985.84
2017-02-28T00:53:26.264Z,985.83
2017-02-28T00:54:07.977Z,985.86
2017-02-28T00:56:22.953Z,985.92
2017-02-28T00:57:04.369Z,985.94
2017-02-28T00:57:45.927Z,985.92
2017-02-28T00:58:27.351Z,985.93
2017-02-28T00:59:09.031Z,985.97
2017-02-28T00:59:50.160Z,986.08
2017-02-28T01:00:31.399Z,986.09
2017-02-28T01:01:12.821Z,986.14
2017-02-28T01:01:54.287Z,986.13
2017-02-28T01:02:35.480Z,986.12
2017-02-28T01:03:16.905Z,986.25
2017-02-28T01:03:58.260Z,986.31
2017-02-28T01:04:39.769Z,986.35
2017-02-28T01:05:21.124Z,986.29
2017-02-28T01:06:02.848Z,986.34
2017-02-28T01:06:44.453Z,986.27
2017-02-28T01:07:26.099Z,986.22
2017-02-28T01:08:07.765Z,986.24
2017-02-28T01:08:49.422Z,986.18
2017-02-28T01:09:31.082Z,986.18
2017-02-28T01:10:12.679Z,986.15
2017-02-28T01:10:54.003Z,986.09
2017-02-28T01:11:35.770Z,986.03
2017-02-28T01:12:17.348Z,986.07
2017-02-28T01:14:32.909Z,986.19
2017-02-28T01:17:03.513Z,986.13
2017-02-28T01:17:45.120Z,986.16
2017-02-28T01:18:26.681Z,986.12
2017-02-28T01:19:08.314Z,986.05
2017-02-28T01:19:49.828Z,986.06
2017-02-28T01:20:31.392Z,986.06
2017-02-28T01:21:12.833Z,986.07
2017-02-28T01:23:12.704Z,985.93
2017-02-28T01:23:54.283Z,985.93
2017-02-28T01:24:35.815Z,986.01
2017-02-28T01:25:17.422Z,986.02
2017-02-28T01:25:59.035Z,986.08
2017-02-28T01:26:40.573Z,986.22
2017-02-28T01:27:22.112Z,986.17
2017-02-28T01:28:03.674Z,986.23
2017-02-28T01:28:45.214Z,986.24
2017-02-28T01:29:26.769Z,986.17
2017-02-28T01:30:08.263Z,986.16
2017-02-28T01:30:49.717Z,986.3
2017-02-28T01:31:31.259Z,986.43
2017-02-28T01:34:02.327Z,986.3
2017-02-28T01:34:44.056Z,986.28
2017-02-28T01:35:25.752Z,986.27
2017-02-28T01:36:07.415Z,986.18
2017-02-28T01:36:48.972Z,986.18
2017-02-28T01:38:48.945Z,985.88
2017-02-28T01:39:30.434Z,985.77
2017-02-28T01:40:11.950Z,985.93
2017-02-28T01:42:12.027Z,985.96
2017-02-28T01:44:42.997Z,986.02
2017-02-28T01:45:24.503Z,985.99
2017-02-28T01:46:06.068Z,985.91
2017-02-28T01:46:47.537Z,985.97
2017-02-28T01:47:29.134Z,986.08
2017-02-28T01:48:10.761Z,986.07
2017-02-28T01:48:52.497Z,986.02
2017-02-28T01:50:52.662Z,986.27
2017-02-28T01:53:23.587Z,986.32
2017-02-28T01:54:05.115Z,986.44
2017-02-28T01:54:46.533Z,986.49
2017-02-28T01:55:28.060Z,986.55
2017-02-28T01:56:09.680Z,986.53
2017-02-28T01:56:51.308Z,986.68
2017-02-28T01:57:32.852Z,986.78
2017-02-28T01:58:14.363Z,986.74
2017-02-28T01:58:56.035Z,986.59
2017-02-28T02:01:10.885Z,986.32
2017-02-28T02:01:51.421Z,986.2
2017-02-28T02:02:31.954Z,986.22
2017-02-28T02:03:12.492Z,986.26
2017-02-28T02:03:53.019Z,986.35
2017-02-28T02:04:33.662Z,986.56
2017-02-28T02:05:14.214Z,986.68
2017-02-28T02:05:54.749Z,986.72
2017-02-28T02:06:35.290Z,986.79
2017-02-28T02:07:15.826Z,986.86
2017-02-28T02:07:56.360Z,986.86
2017-02-28T02:08:36.898Z,986.87
2017-02-28T02:09:17.440Z,986.75
2017-02-28T02:09:57.974Z,986.79
2017-02-28T02:10:38.508Z,986.56
2017-02-28T02:11:19.045Z,986.45
2017-02-28T02:11:59.584Z,986.4
2017-02-28T02:12:40.115Z,986.38
2017-02-28T02:13:20.649Z,986.36
2017-02-28T02:14:01.187Z,986.27
2017-02-28T02:14:41.726Z,986.3
2017-02-28T02:15:22.271Z,986.35
2017-02-28T02:16:02.802Z,986.31
2017-02-28T02:16:43.336Z,986.33
2017-02-28T02:17:23.869Z,986.27
2017-02-28T02:18:04.404Z,986.24
2017-02-28T02:18:44.956Z,986.3
2017-02-28T02:19:25.495Z,986.45
2017-02-28T02:20:06.034Z,986.56
2017-02-28T02:20:46.574Z,986.57
2017-02-28T02:21:27.120Z,986.5
2017-02-28T02:22:07.650Z,986.51
2017-02-28T02:22:48.187Z,986.44
2017-02-28T02:23:28.726Z,986.38
2017-02-28T02:24:09.258Z,986.38
2017-02-28T02:24:49.799Z,986.4
2017-02-28T02:25:30.338Z,986.43
2017-02-28T02:26:10.877Z,986.48
2017-02-28T02:26:51.410Z,986.55
2017-02-28T02:27:31.943Z,986.49
2017-02-28T02:28:12.484Z,986.58
2017-02-28T02:28:53.014Z,986.65
2017-02-28T02:29:33.556Z,986.59
2017-02-28T02:30:14.094Z,986.56
2017-02-28T02:30:54.635Z,986.52
2017-02-28T02:31:35.175Z,986.61
2017-02-28T02:32:15.714Z,986.57
2017-02-28T02:32:56.248Z,986.59
2017-02-28T02:33:36.782Z,986.55
2017-02-28T02:34:17.319Z,986.61
2017-02-28T02:34:57.867Z,986.57
2017-02-28T02:35:38.407Z,986.61
2017-02-28T02:36:18.943Z,986.6
2017-02-28T02:36:59.489Z,986.64
2017-02-28T02:37:40.021Z,986.69
2017-02-28T02:38:20.567Z,986.68
2017-02-28T02:39:01.104Z,986.65
2017-02-28T02:39:41.655Z,986.63
2017-02-28T02:40:22.189Z,986.67
2017-02-28T02:41:02.723Z,986.61
2017-02-28T02:41:43.259Z,986.62
2017-02-28T02:42:23.795Z,986.57
2017-02-28T02:43:04.343Z,986.57
2017-02-28T02:43:44.873Z,986.59
2017-02-28T02:44:25.409Z,986.7
2017-02-28T02:45:05.939Z,986.73
2017-02-28T02:45:46.479Z,986.82
2017-02-28T02:46:27.019Z,986.9
2017-02-28T02:47:07.550Z,986.96
2017-02-28T02:47:48.076Z,986.9
2017-02-28T02:48:28.611Z,986.87
2017-02-28T02:49:09.144Z,986.81
2017-02-28T02:49:49.678Z,986.76
2017-02-28T02:50:30.210Z,986.72
2017-02-28T02:51:10.757Z,986.63
2017-02-28T02:51:51.298Z,986.57
2017-02-28T02:52:31.858Z,986.5
2017-02-28T02:53:12.399Z,986.43
2017-02-28T02:53:52.943Z,986.38
2017-02-28T02:54:33.482Z,986.47
2017-02-28T02:55:14.018Z,986.49
2017-02-28T02:55:54.549Z,986.52
2017-02-28T02:56:35.089Z,986.47
2017-02-28T02:57:15.638Z,986.44
2017-02-28T02:57:56.179Z,986.43
2017-02-28T02:58:36.719Z,986.39
2017-02-28T02:59:17.256Z,986.36
2017-02-28T02:59:57.791Z,986.35
2017-02-28T03:00:38.335Z,986.37
2017-02-28T03:01:18.870Z,986.37
2017-02-28T03:01:59.406Z,986.43
2017-02-28T03:02:39.943Z,986.45
2017-02-28T03:03:20.495Z,986.42
2017-02-28T03:04:01.042Z,986.45
2017-02-28T03:04:41.587Z,986.38
2017-02-28T03:05:22.114Z,986.41
2017-02-28T03:06:02.646Z,986.45
2017-02-28T03:06:43.191Z,986.51
2017-02-28T03:07:23.722Z,986.55
2017-02-28T03:08:04.260Z,986.58
2017-02-28T03:08:44.795Z,986.72
2017-02-28T03:09:25.326Z,986.67
2017-02-28T03:10:05.869Z,986.68
2017-02-28T03:10:46.408Z,986.57
2017-02-28T03:11:26.942Z,986.51
2017-02-28T03:12:07.482Z,986.48
2017-02-28T03:12:48.013Z,986.52
2017-02-28T03:13:28.550Z,986.57
2017-02-28T03:14:09.100Z,986.6
2017-02-28T03:14:49.639Z,986.74
2017-02-28T03:15:30.177Z,986.71
2017-02-28T03:16:10.711Z,986.73
2017-02-28T03:16:51.249Z,986.64
2017-02-28T03:17:31.790Z,986.6
2017-02-28T03:18:12.330Z,986.64
2017-02-28T03:18:52.882Z,986.6
2017-02-28T03:19:33.410Z,986.58
2017-02-28T03:20:13.962Z,986.53
2017-02-28T03:20:54.501Z,986.49
2017-02-28T03:21:35.036Z,986.43
2017-02-28T03:22:15.584Z,986.55
2017-02-28T03:22:56.124Z,986.47
2017-02-28T03:23:36.655Z,986.52
2017-02-28T03:24:17.191Z,986.46
2017-02-28T03:24:57.732Z,986.53
2017-02-28T03:25:38.271Z,986.48
2017-02-28T03:26:18.810Z,986.49
2017-02-28T03:26:59.351Z,986.53
2017-02-28T03:27:39.887Z,986.42
2017-02-28T03:28:20.429Z,986.43
2017-02-28T03:29:00.985Z,986.43
2017-02-28T03:29:41.537Z,986.35
2017-02-28T03:30:22.062Z,986.33
2017-02-28T03:31:02.598Z,986.25
2017-02-28T03:31:43.130Z,986.25
2017-02-28T03:32:23.665Z,986.18
2017-02-28T03:33:04.200Z,986.13
2017-02-28T03:33:44.739Z,986.15
2017-02-28T03:34:25.336Z,986.22
2017-02-28T03:35:05.869Z,986.23
2017-02-28T03:35:46.421Z,986.24
2017-02-28T03:36:26.949Z,986.22
2017-02-28T03:37:07.489Z,986.21
2017-02-28T03:37:48.017Z,986.24
2017-02-28T03:38:28.553Z,986.21
2017-02-28T03:39:09.089Z,986.22
2017-02-28T03:39:49.627Z,986.2
2017-02-28T03:40:30.152Z,986.18
2017-02-28T03:41:10.691Z,986.33
2017-02-28T03:41:51.219Z,986.34
2017-02-28T03:42:31.756Z,986.41
2017-02-28T03:43:12.301Z,986.53
2017-02-28T03:43:52.827Z,986.6
2017-02-28T03:44:33.362Z,986.54
2017-02-28T03:45:13.904Z,986.5
2017-02-28T03:45:54.449Z,986.51
2017-02-28T03:46:34.976Z,986.44
2017-02-28T03:47:15.514Z,986.46
2017-02-28T03:47:56.056Z,986.44
2017-02-28T03:48:36.593Z,986.46
2017-02-28T03:49:17.129Z,986.46
2017-02-28T03:49:57.674Z,986.47
2017-02-28T03:50:38.208Z,986.45
2017-02-28T03:51:18.742Z,986.43
2017-02-28T03:51:59.277Z,986.39
2017-02-28T03:52:39.814Z,986.38
2017-02-28T03:53:20.347Z,986.37
2017-02-28T03:54:00.882Z,986.39
2017-02-28T03:54:41.463Z,986.39
2017-02-28T03:55:22.000Z,986.39
2017-02-28T03:56:02.529Z,986.4
2017-02-28T03:56:43.068Z,986.4
2017-02-28T03:57:23.603Z,986.37
2017-02-28T03:58:04.133Z,986.38
2017-02-28T03:58:44.669Z,986.39
2017-02-28T03:59:25.203Z,986.41
2017-02-28T04:00:05.738Z,986.46
2017-02-28T04:00:46.275Z,986.49
2017-02-28T04:01:26.835Z,986.5
2017-02-28T04:02:07.369Z,986.52
2017-02-28T04:02:47.912Z,986.49
2017-02-28T04:03:28.462Z,986.5
2017-02-28T04:04:09.010Z,986.46
2017-02-28T04:04:49.558Z,986.47
2017-02-28T04:05:30.127Z,986.5
2017-02-28T04:06:10.672Z,986.51
2017-02-28T04:06:51.213Z,986.44
2017-02-28T04:07:31.765Z,986.42
2017-02-28T04:08:12.309Z,986.48
2017-02-28T04:08:52.844Z,986.45
2017-02-28T04:09:33.381Z,986.4
2017-02-28T04:10:13.915Z,986.39
2017-02-28T04:10:54.453Z,986.42
2017-02-28T04:11:34.995Z,986.48
2017-02-28T04:12:15.532Z,986.49
2017-02-28T04:12:56.075Z,986.45
2017-02-28T04:13:36.620Z,986.37
2017-02-28T04:14:17.158Z,986.43
2017-02-28T04:14:57.700Z,986.45
2017-02-28T04:15:38.236Z,986.29
2017-02-28T04:16:18.778Z,986.3
2017-02-28T04:16:59.309Z,986.31
2017-02-28T04:17:39.851Z,986.28
2017-02-28T04:18:20.389Z,986.23
2017-02-28T04:19:00.930Z,986.25
2017-02-28T04:19:41.478Z,986.23
2017-02-28T04:20:22.028Z,986.28
2017-02-28T04:21:02.579Z,986.23
2017-02-28T04:21:43.116Z,986.26
2017-02-28T04:22:23.660Z,986.26
2017-02-28T04:23:04.196Z,986.24
2017-02-28T04:23:44.729Z,986.31
2017-02-28T04:24:25.270Z,986.24
2017-02-28T04:25:05.805Z,986.28
2017-02-28T04:25:46.340Z,986.41
2017-02-28T04:26:26.877Z,986.3
2017-02-28T04:27:07.411Z,986.29
2017-02-28T04:27:47.943Z,986.24
2017-02-28T04:28:28.481Z,986.39
2017-02-28T04:29:09.019Z,986.31
2017-02-28T04:29:49.563Z,986.34
2017-02-28T04:30:30.097Z,986.34
2017-02-28T04:31:10.638Z,986.41
2017-02-28T04:31:51.187Z,986.39
2017-02-28T04:32:33.170Z,986.4
2017-02-28T04:33:16.121Z,986.47
2017-02-28T04:33:59.190Z,986.45
2017-02-28T04:34:40.720Z,986.49
2017-02-28T04:35:23.632Z,986.56
2017-02-28T04:36:07.201Z,986.54
2017-02-28T04:36:48.382Z,986.63
2017-02-28T04:37:28.915Z,986.67
2017-02-28T04:38:09.473Z,986.69
2017-02-28T04:38:50.017Z,986.72
2017-02-28T04:39:30.563Z,986.68
2017-02-28T04:40:11.091Z,986.79
2017-02-28T04:40:51.632Z,986.72
2017-02-28T04:41:32.171Z,986.71
2017-02-28T04:42:12.710Z,986.72
2017-02-28T04:42:53.245Z,986.66
2017-02-28T04:43:33.786Z,986.72
2017-02-28T04:44:14.321Z,986.68
2017-02-28T04:44:54.866Z,986.75
2017-02-28T04:45:35.398Z,986.68
2017-02-28T04:46:16.846Z,986.69
2017-02-28T04:47:00.299Z,986.65
2017-02-28T04:47:43.773Z,986.78
2017-02-28T04:48:26.979Z,986.68
2017-02-28T04:49:09.887Z,986.75
2017-02-28T04:49:50.428Z,986.68
2017-02-28T04:50:30.965Z,986.72
2017-02-28T04:51:11.502Z,986.69
2017-02-28T04:51:52.049Z,986.74
2017-02-28T04:52:32.600Z,986.65
2017-02-28T04:53:13.134Z,986.7
2017-02-28T04:53:53.666Z,986.78
2017-02-28T04:54:34.199Z,986.75
2017-02-28T04:55:14.733Z,986.76
2017-02-28T04:55:55.290Z,986.8
2017-02-28T04:56:35.840Z,986.83
2017-02-28T04:57:16.388Z,986.79
2017-02-28T04:57:56.931Z,986.84
2017-02-28T04:58:37.465Z,986.7
2017-02-28T04:59:18.011Z,986.66
2017-02-28T04:59:58.619Z,986.68
2017-02-28T05:00:39.157Z,986.54
2017-02-28T05:01:19.695Z,986.59
2017-02-28T05:02:00.241Z,986.69
2017-02-28T05:02:40.792Z,986.77
2017-02-28T05:03:21.360Z,986.64
2017-02-28T05:04:01.897Z,986.68
2017-02-28T05:04:42.447Z,986.7
2017-02-28T05:05:22.998Z,986.76
2017-02-28T05:06:03.547Z,986.73
2017-02-28T05:06:44.083Z,986.72
2017-02-28T05:07:24.639Z,986.69
2017-02-28T05:08:05.202Z,986.64
2017-02-28T05:08:45.729Z,986.68
2017-02-28T05:09:26.279Z,986.75
2017-02-28T05:10:06.835Z,986.63
2017-02-28T05:10:47.378Z,986.59
2017-02-28T05:11:27.921Z,986.75
2017-02-28T05:12:08.465Z,986.71
2017-02-28T05:12:49.004Z,986.65
2017-02-28T05:13:29.534Z,986.72
2017-02-28T05:14:10.078Z,986.71
2017-02-28T05:14:50.609Z,986.64
2017-02-28T05:15:31.157Z,986.65
2017-02-28T05:16:11.696Z,986.69
2017-02-28T05:16:52.241Z,986.7
2017-02-28T05:17:32.785Z,986.73
2017-02-28T05:18:13.327Z,986.75
2017-02-28T05:18:53.859Z,986.69
2017-02-28T05:19:34.396Z,986.65
2017-02-28T05:20:14.946Z,986.75
2017-02-28T05:20:55.544Z,986.82
2017-02-28T05:21:36.086Z,986.8
2017-02-28T05:22:16.635Z,986.85
2017-02-28T05:22:57.168Z,986.8
2017-02-28T05:23:37.714Z,986.84
2017-02-28T05:24:18.251Z,986.83
2017-02-28T05:24:58.790Z,986.85
2017-02-28T05:25:39.318Z,986.82
2017-02-28T05:26:19.857Z,986.87
2017-02-28T05:27:00.402Z,986.91
2017-02-28T05:27:40.937Z,986.86
2017-02-28T05:28:21.489Z,986.86
2017-02-28T05:29:02.024Z,986.84
2017-02-28T05:29:42.570Z,986.92
2017-02-28T05:30:23.111Z,986.87
2017-02-28T05:31:03.642Z,986.96
2017-02-28T05:31:44.176Z,986.89
2017-02-28T05:32:24.711Z,986.85
2017-02-28T05:33:05.252Z,987.01
2017-02-28T05:33:45.786Z,986.95
2017-02-28T05:34:26.322Z,986.92
2017-02-28T05:35:06.868Z,986.95
2017-02-28T05:35:47.409Z,986.95
2017-02-28T05:36:27.943Z,986.94
2017-02-28T05:37:08.478Z,987
2017-02-28T05:37:49.033Z,987.01
2017-02-28T05:38:29.573Z,987.06
2017-02-28T05:39:10.119Z,987.12
2017-02-28T05:39:50.658Z,987.15
2017-02-28T05:40:31.192Z,987.08
2017-02-28T05:41:11.731Z,987.16
2017-02-28T05:41:52.266Z,987.21
2017-02-28T05:42:32.801Z,987.14
2017-02-28T05:43:13.337Z,987.24
2017-02-28T05:43:53.877Z,987.24
2017-02-28T05:44:34.417Z,987.28
2017-02-28T05:45:14.967Z,987.28
2017-02-28T05:45:55.515Z,987.25
2017-02-28T05:46:36.055Z,987.32
2017-02-28T05:47:16.607Z,987.29
2017-02-28T05:47:57.143Z,987.29
2017-02-28T05:48:37.677Z,987.31
2017-02-28T05:49:18.220Z,987.4
2017-02-28T05:49:58.804Z,987.42
2017-02-28T05:50:39.339Z,987.3
2017-02-28T05:51:19.889Z,987.33
2017-02-28T05:52:00.426Z,987.3
2017-02-28T05:52:40.960Z,987.29
2017-02-28T05:53:21.495Z,987.35
2017-02-28T05:54:02.047Z,987.4
2017-02-28T05:54:42.596Z,987.38
2017-02-28T05:55:23.132Z,987.41
2017-02-28T05:56:03.670Z,987.53
2017-02-28T05:56:44.199Z,987.38
2017-02-28T05:57:24.731Z,987.42
2017-02-28T05:58:05.265Z,987.4
2017-02-28T05:58:45.801Z,987.41
2017-02-28T05:59:26.337Z,987.34
2017-02-28T06:00:06.874Z,987.45
2017-02-28T06:00:47.422Z,987.5
2017-02-28T06:01:27.974Z,987.42
2017-02-28T06:02:08.523Z,987.42
2017-02-28T06:02:49.056Z,987.49
2017-02-28T06:03:29.590Z,987.5
2017-02-28T06:04:10.128Z,987.44
2017-02-28T06:04:50.678Z,987.5
2017-02-28T06:05:31.234Z,987.41
2017-02-28T06:06:11.772Z,987.47
2017-02-28T06:06:52.309Z,987.61
2017-02-28T06:07:32.845Z,987.47
2017-02-28T06:08:13.387Z,987.48
2017-02-28T06:08:53.929Z,987.44
2017-02-28T06:09:34.462Z,987.5
2017-02-28T06:10:15.012Z,987.48
2017-02-28T06:10:55.546Z,987.54
2017-02-28T06:11:36.084Z,987.5
2017-02-28T06:12:16.642Z,987.62
2017-02-28T06:12:57.179Z,987.59
2017-02-28T06:13:37.716Z,987.52
2017-02-28T06:14:18.248Z,987.54
2017-02-28T06:14:58.784Z,987.55
2017-02-28T06:15:39.328Z,987.62
2017-02-28T06:16:19.863Z,987.57
2017-02-28T06:17:00.415Z,987.66
2017-02-28T06:17:40.959Z,987.57
2017-02-28T06:18:21.491Z,987.59
2017-02-28T06:19:02.034Z,987.49
2017-02-28T06:19:42.571Z,987.54
2017-02-28T06:20:23.111Z,987.6
2017-02-28T06:21:03.649Z,987.63
2017-02-28T06:21:44.189Z,987.74
2017-02-28T06:22:24.739Z,987.66
2017-02-28T06:23:05.272Z,987.58
2017-02-28T06:23:45.853Z,987.67
2017-02-28T06:24:26.353Z,987.73
2017-02-28T06:25:06.889Z,987.69
2017-02-28T06:25:47.425Z,987.69
2017-02-28T06:26:27.960Z,987.61
2017-02-28T06:27:08.497Z,987.69
2017-02-28T06:27:49.043Z,987.64
2017-02-28T06:28:29.578Z,987.62
2017-02-28T06:29:10.120Z,987.68
2017-02-28T06:29:50.664Z,987.59
2017-02-28T06:30:31.201Z,987.66
2017-02-28T06:31:11.744Z,987.68
2017-02-28T06:31:52.282Z,987.62
2017-02-28T06:32:32.833Z,987.63
2017-02-28T06:33:13.384Z,987.69
2017-02-28T06:33:53.921Z,987.56
2017-02-28T06:34:34.460Z,987.67
2017-02-28T06:35:15.006Z,987.58
2017-02-28T06:35:55.556Z,987.68
2017-02-28T06:36:36.096Z,987.57
2017-02-28T06:37:16.634Z,987.54
2017-02-28T06:37:57.171Z,987.61
2017-02-28T06:38:37.710Z,987.62
2017-02-28T06:39:18.243Z,987.52
2017-02-28T06:39:58.780Z,987.55
2017-02-28T06:40:39.317Z,987.77
2017-02-28T06:41:19.883Z,987.61
2017-02-28T06:42:00.416Z,987.65
2017-02-28T06:42:40.959Z,987.58
2017-02-28T06:43:21.493Z,987.51
2017-02-28T06:44:02.027Z,987.55
2017-02-28T06:44:42.578Z,987.55
2017-02-28T06:45:23.111Z,987.58
2017-02-28T06:46:03.645Z,987.52
2017-02-28T06:46:44.182Z,987.53
2017-02-28T06:47:24.716Z,987.57
2017-02-28T06:48:05.249Z,987.45
2017-02-28T06:48:45.982Z,987.51
2017-02-28T06:49:26.854Z,987.53
2017-02-28T06:50:07.390Z,987.48
2017-02-28T06:50:47.924Z,987.53
2017-02-28T06:51:28.455Z,987.53
2017-02-28T06:52:08.990Z,987.59
2017-02-28T06:52:49.548Z,987.49
2017-02-28T06:53:30.084Z,987.47
2017-02-28T06:54:10.634Z,987.55
2017-02-28T06:54:51.214Z,987.63
2017-02-28T06:55:31.768Z,987.6
2017-02-28T06:56:12.318Z,987.63
2017-02-28T06:56:52.869Z,987.67
2017-02-28T06:57:33.409Z,987.73
2017-02-28T06:58:13.971Z,987.72
2017-02-28T06:58:54.514Z,987.77
2017-02-28T06:59:35.048Z,987.74
2017-02-28T07:00:15.582Z,987.87
2017-02-28T07:00:56.134Z,987.73
2017-02-28T07:01:36.668Z,987.68
2017-02-28T07:02:17.205Z,987.72
2017-02-28T07:02:57.739Z,987.68
2017-02-28T07:03:38.274Z,987.59
2017-02-28T07:04:18.816Z,987.62
2017-02-28T07:04:59.378Z,987.62
2017-02-28T07:05:39.927Z,987.65
2017-02-28T07:06:20.457Z,987.59
2017-02-28T07:07:01.002Z,987.58
2017-02-28T07:07:41.546Z,987.54
2017-02-28T07:08:22.083Z,987.58
2017-02-28T07:09:02.639Z,987.59
2017-02-28T07:09:43.286Z,987.57
2017-02-28T07:10:23.814Z,987.46
2017-02-28T07:11:04.406Z,987.49
2017-02-28T07:11:45.003Z,987.52
2017-02-28T07:12:25.566Z,987.4
2017-02-28T07:13:06.279Z,987.43
2017-02-28T07:13:46.882Z,987.45
2017-02-28T07:14:27.429Z,987.49
2017-02-28T07:15:07.998Z,987.49
2017-02-28T07:15:48.580Z,987.5
2017-02-28T07:16:29.130Z,987.51
2017-02-28T07:17:09.737Z,987.53
2017-02-28T07:17:50.278Z,987.51
2017-02-28T07:18:30.939Z,987.58
2017-02-28T07:19:11.435Z,987.53
2017-02-28T07:19:51.982Z,987.48
2017-02-28T07:20:32.525Z,987.55
2017-02-28T07:21:13.058Z,987.51
2017-02-28T07:21:53.589Z,987.52
2017-02-28T07:22:34.141Z,987.46
2017-02-28T07:23:14.682Z,987.58
2017-02-28T07:23:55.214Z,987.52
2017-02-28T07:24:35.760Z,987.53
2017-02-28T07:25:16.298Z,987.57
2017-02-28T07:25:56.842Z,987.54
2017-02-28T07:26:37.390Z,987.6
2017-02-28T07:27:17.929Z,987.53
2017-02-28T07:27:58.475Z,987.66
2017-02-28T07:28:39.011Z,987.63
2017-02-28T07:29:19.550Z,987.6
2017-02-28T07:30:00.081Z,987.55
2017-02-28T07:30:40.618Z,987.61
2017-02-28T07:31:21.158Z,987.77
2017-02-28T07:32:01.695Z,987.53
2017-02-28T07:32:42.236Z,987.55
2017-02-28T07:33:22.779Z,987.61
2017-02-28T07:34:03.311Z,987.55
2017-02-28T07:34:43.868Z,987.55
2017-02-28T07:35:24.404Z,987.61
2017-02-28T07:36:04.944Z,987.5
2017-02-28T07:36:45.472Z,987.6
2017-02-28T07:37:26.021Z,987.51
2017-02-28T07:38:06.552Z,987.6
2017-02-28T07:38:47.096Z,987.55
2017-02-28T07:39:27.635Z,987.53
2017-02-28T07:40:08.169Z,987.72
2017-02-28T07:40:48.742Z,987.73
2017-02-28T07:41:29.277Z,987.65
2017-02-28T07:42:09.824Z,987.61
2017-02-28T07:42:50.360Z,987.62
2017-02-28T07:43:30.893Z,987.64
2017-02-28T07:44:11.428Z,987.61
2017-02-28T07:44:51.980Z,987.58
2017-02-28T07:45:32.518Z,987.62
2017-02-28T07:46:13.050Z,987.67
2017-02-28T07:46:53.598Z,987.61
2017-02-28T07:47:34.127Z,987.64
2017-02-28T07:48:14.666Z,987.53
2017-02-28T07:48:55.205Z,987.66
2017-02-28T07:49:35.755Z,987.61
2017-02-28T07:50:16.286Z,987.56
2017-02-28T07:50:56.824Z,987.69
2017-02-28T07:51:37.371Z,987.58
2017-02-28T07:52:17.913Z,987.61
2017-02-28T07:52:58.452Z,987.53
2017-02-28T07:53:38.996Z,987.58
2017-02-28T07:54:19.529Z,987.57
2017-02-28T07:55:00.068Z,987.53
2017-02-28T07:55:40.605Z,987.49
2017-02-28T07:56:21.140Z,987.5
2017-02-28T07:57:01.676Z,987.49
2017-02-28T07:57:42.217Z,987.48
2017-02-28T07:58:22.762Z,987.44
2017-02-28T07:59:03.310Z,987.49
2017-02-28T07:59:43.844Z,987.49
2017-02-28T08:00:24.379Z,987.48
2017-02-28T08:01:04.924Z,987.56
2017-02-28T08:01:45.449Z,987.55
2017-02-28T08:02:25.997Z,987.57
2017-02-28T08:03:06.538Z,987.52
2017-02-28T08:03:47.072Z,987.46
2017-02-28T08:04:27.615Z,987.47
2017-02-28T08:05:08.161Z,987.51
2017-02-28T08:05:48.694Z,987.67
2017-02-28T08:06:29.227Z,987.57
2017-02-28T08:07:09.764Z,987.54
2017-02-28T08:07:50.299Z,987.56
2017-02-28T08:08:30.850Z,987.59
2017-02-28T08:09:11.402Z,987.56
2017-02-28T08:09:51.952Z,987.58
2017-02-28T08:10:33.287Z,987.5
2017-02-28T08:11:13.833Z,987.56
2017-02-28T08:11:54.378Z,987.63
2017-02-28T08:12:34.924Z,987.53
2017-02-28T08:13:15.469Z,987.57
2017-02-28T08:13:56.007Z,987.49
2017-02-28T08:14:36.599Z,987.54
2017-02-28T08:15:17.151Z,987.54
2017-02-28T08:15:57.692Z,987.53
2017-02-28T08:16:38.223Z,987.7
2017-02-28T08:17:18.759Z,987.65
2017-02-28T08:17:59.294Z,987.5
2017-02-28T08:18:39.912Z,987.53
2017-02-28T08:19:20.439Z,987.55
2017-02-28T08:20:00.976Z,987.62
2017-02-28T08:20:41.519Z,987.52
2017-02-28T08:21:22.067Z,987.71
2017-02-28T08:22:02.608Z,987.43
2017-02-28T08:22:43.148Z,987.59
2017-02-28T08:23:23.686Z,987.75
2017-02-28T08:24:04.234Z,987.6
2017-02-28T08:24:44.787Z,987.63
2017-02-28T08:25:25.335Z,987.44
2017-02-28T08:26:05.870Z,987.65
2017-02-28T08:26:46.439Z,987.61
2017-02-28T08:27:26.968Z,987.54
2017-02-28T08:28:07.511Z,987.48
2017-02-28T08:28:48.102Z,987.54
2017-02-28T08:29:28.642Z,987.5
2017-02-28T08:30:09.178Z,987.52
2017-02-28T08:30:49.720Z,987.48
2017-02-28T08:31:30.262Z,987.53
2017-02-28T08:32:10.809Z,987.58
2017-02-28T08:32:51.350Z,987.51
2017-02-28T08:33:31.912Z,987.52
2017-02-28T08:34:12.452Z,987.46
2017-02-28T08:34:52.994Z,987.5
2017-02-28T08:35:33.540Z,987.53
2017-02-28T08:36:14.083Z,987.62
2017-02-28T08:36:54.628Z,987.73
2017-02-28T08:37:35.176Z,987.49
2017-02-28T08:38:15.716Z,987.54
2017-02-28T08:38:56.255Z,987.51
2017-02-28T08:39:36.795Z,987.44
2017-02-28T08:40:17.339Z,987.39
2017-02-28T08:40:57.885Z,987.46
2017-02-28T08:41:38.424Z,987.51
2017-02-28T08:42:18.964Z,987.47
2017-02-28T08:42:59.499Z,987.44
2017-02-28T08:43:40.036Z,987.45
2017-02-28T08:44:20.571Z,987.43
2017-02-28T08:45:01.108Z,987.44
2017-02-28T08:45:41.651Z,987.45
2017-02-28T08:46:22.191Z,987.37
2017-02-28T08:47:02.727Z,987.29
2017-02-28T08:47:43.260Z,987.16
2017-02-28T08:48:23.794Z,987.17
2017-02-28T08:49:04.336Z,987.21
2017-02-28T08:49:44.875Z,987.27
2017-02-28T08:50:25.411Z,987.22
2017-02-28T08:51:05.952Z,987.18
2017-02-28T08:51:46.494Z,987.21
2017-02-28T08:52:27.035Z,987.36
2017-02-28T08:53:07.581Z,987.22
2017-02-28T08:53:48.126Z,987.29
2017-02-28T08:54:28.660Z,987.2
2017-02-28T08:55:09.197Z,987.2
2017-02-28T08:55:49.746Z,987.2
2017-02-28T08:56:30.281Z,987.37
2017-02-28T08:57:10.886Z,987.2
2017-02-28T08:57:51.436Z,987.25
2017-02-28T08:58:31.973Z,987.08
2017-02-28T08:59:12.517Z,987.14
2017-02-28T08:59:53.055Z,987.11
2017-02-28T09:00:33.602Z,987.14
2017-02-28T09:01:14.140Z,987.21
2017-02-28T09:01:54.674Z,987.12
2017-02-28T09:02:35.224Z,987.1
2017-02-28T09:03:15.769Z,987.14
2017-02-28T09:03:56.305Z,987.21
2017-02-28T09:04:36.850Z,987.18
2017-02-28T09:05:17.395Z,987.17